sensor_id;sensor_type;location;lat;lon;timestamp;P1;durP1;ratioP1;P2;durP2;ratioP2
21758;SDS011;11041;50.854;20.580;2023-09-08T00:01:03;15.27;;;11.45;;
21758;SDS011;11041;50.854;20.580;2023-09-08T00:03:32;15.23;;;12.50;;
21758;SDS011;11041;50.854;20.580;2023-09-08T00:06:01;13.15;;;11.75;;
21758;SDS011;11041;50.854;20.580;2023-09-08T00:08:30;16.30;;;11.88;;
21758;SDS011;11041;50.854;20.580;2023-09-08T00:10:57;14.45;;;10.93;;
21758;SDS011;11041;50.854;20.580;2023-09-08T00:13:26;14.07;;;12.18;;
21758;SDS011;11041;50.854;20.580;2023-09-08T00:15:57;14.05;;;12.55;;
21758;SDS011;11041;50.854;20.580;2023-09-08T00:18:24;15.55;;;12.32;;
21758;SDS011;11041;50.854;20.580;2023-09-08T00:20:53;16.65;;;12.75;;
21758;SDS011;11041;50.854;20.580;2023-09-08T00:23:20;13.50;;;11.77;;
21758;SDS011;11041;50.854;20.580;2023-09-08T00:25:46;13.90;;;12.25;;
21758;SDS011;11041;50.854;20.580;2023-09-08T00:28:17;16.88;;;12.43;;
21758;SDS011;11041;50.854;20.580;2023-09-08T00:30:44;13.85;;;11.68;;
21758;SDS011;11041;50.854;20.580;2023-09-08T00:33:13;15.90;;;13.07;;
21758;SDS011;11041;50.854;20.580;2023-09-08T00:35:45;15.95;;;11.82;;
21758;SDS011;11041;50.854;20.580;2023-09-08T00:38:19;14.63;;;12.50;;
21758;SDS011;11041;50.854;20.580;2023-09-08T00:40:49;16.90;;;12.23;;
21758;SDS011;11041;50.854;20.580;2023-09-08T00:43:17;14.07;;;11.30;;
21758;SDS011;11041;50.854;20.580;2023-09-08T00:45:46;16.00;;;12.10;;
21758;SDS011;11041;50.854;20.580;2023-09-08T00:48:16;16.30;;;11.38;;
21758;SDS011;11041;50.854;20.580;2023-09-08T00:50:50;15.95;;;11.27;;
21758;SDS011;11041;50.854;20.580;2023-09-08T00:53:17;13.20;;;11.15;;
21758;SDS011;11041;50.854;20.580;2023-09-08T00:55:47;12.40;;;10.68;;
21758;SDS011;11041;50.854;20.580;2023-09-08T00:58:15;16.00;;;12.00;;
21758;SDS011;11041;50.854;20.580;2023-09-08T01:00:44;14.52;;;12.98;;
21758;SDS011;11041;50.854;20.580;2023-09-08T01:03:15;14.65;;;12.93;;
21758;SDS011;11041;50.854;20.580;2023-09-08T01:05:44;17.05;;;13.98;;
21758;SDS011;11041;50.854;20.580;2023-09-08T01:08:12;20.65;;;16.42;;
21758;SDS011;11041;50.854;20.580;2023-09-08T01:10:42;19.67;;;14.95;;
21758;SDS011;11041;50.854;20.580;2023-09-08T01:13:13;17.80;;;14.18;;
21758;SDS011;11041;50.854;20.580;2023-09-08T01:15:42;19.70;;;15.15;;
21758;SDS011;11041;50.854;20.580;2023-09-08T01:18:11;18.85;;;15.75;;
21758;SDS011;11041;50.854;20.580;2023-09-08T01:20:55;18.38;;;15.27;;
21758;SDS011;11041;50.854;20.580;2023-09-08T01:23:56;20.42;;;16.10;;
21758;SDS011;11041;50.854;20.580;2023-09-08T01:26:45;18.15;;;15.43;;
21758;SDS011;11041;50.854;20.580;2023-09-08T01:29:14;20.50;;;15.43;;
21758;SDS011;11041;50.854;20.580;2023-09-08T01:31:43;18.92;;;16.88;;
21758;SDS011;11041;50.854;20.580;2023-09-08T01:34:13;20.20;;;15.23;;
21758;SDS011;11041;50.854;20.580;2023-09-08T01:36:44;18.60;;;15.32;;
21758;SDS011;11041;50.854;20.580;2023-09-08T01:39:14;17.52;;;12.90;;
21758;SDS011;11041;50.854;20.580;2023-09-08T01:41:40;17.92;;;13.82;;
21758;SDS011;11041;50.854;20.580;2023-09-08T01:44:11;18.88;;;14.23;;
21758;SDS011;11041;50.854;20.580;2023-09-08T01:46:42;16.83;;;13.15;;
21758;SDS011;11041;50.854;20.580;2023-09-08T01:49:09;18.08;;;13.45;;
21758;SDS011;11041;50.854;20.580;2023-09-08T01:51:45;16.02;;;14.32;;
21758;SDS011;11041;50.854;20.580;2023-09-08T01:54:16;18.13;;;13.95;;
21758;SDS011;11041;50.854;20.580;2023-09-08T01:56:48;14.88;;;13.30;;
21758;SDS011;11041;50.854;20.580;2023-09-08T01:59:17;16.58;;;13.20;;
21758;SDS011;11041;50.854;20.580;2023-09-08T02:01:45;18.67;;;13.73;;
21758;SDS011;11041;50.854;20.580;2023-09-08T02:04:16;20.30;;;13.95;;
21758;SDS011;11041;50.854;20.580;2023-09-08T02:06:46;15.57;;;13.02;;
21758;SDS011;11041;50.854;20.580;2023-09-08T02:09:17;12.88;;;11.48;;
21758;SDS011;11041;50.854;20.580;2023-09-08T02:11:46;13.07;;;11.57;;
21758;SDS011;11041;50.854;20.580;2023-09-08T02:14:15;17.58;;;13.48;;
21758;SDS011;11041;50.854;20.580;2023-09-08T02:16:48;13.73;;;11.60;;
21758;SDS011;11041;50.854;20.580;2023-09-08T02:19:15;16.73;;;12.05;;
21758;SDS011;11041;50.854;20.580;2023-09-08T02:21:43;14.32;;;12.32;;
21758;SDS011;11041;50.854;20.580;2023-09-08T02:24:12;15.75;;;12.85;;
21758;SDS011;11041;50.854;20.580;2023-09-08T02:26:39;13.70;;;11.18;;
21758;SDS011;11041;50.854;20.580;2023-09-08T02:29:12;13.40;;;11.57;;
21758;SDS011;11041;50.854;20.580;2023-09-08T02:31:41;13.40;;;11.20;;
21758;SDS011;11041;50.854;20.580;2023-09-08T02:34:15;15.00;;;11.38;;
21758;SDS011;11041;50.854;20.580;2023-09-08T02:36:43;13.38;;;11.93;;
21758;SDS011;11041;50.854;20.580;2023-09-08T02:39:13;12.73;;;11.35;;
21758;SDS011;11041;50.854;20.580;2023-09-08T02:41:40;13.75;;;12.18;;
21758;SDS011;11041;50.854;20.580;2023-09-08T02:44:07;16.70;;;12.55;;
21758;SDS011;11041;50.854;20.580;2023-09-08T02:46:37;14.45;;;12.98;;
21758;SDS011;11041;50.854;20.580;2023-09-08T02:49:08;15.35;;;13.57;;
21758;SDS011;11041;50.854;20.580;2023-09-08T02:51:35;14.20;;;12.25;;
21758;SDS011;11041;50.854;20.580;2023-09-08T02:54:01;14.43;;;12.93;;
21758;SDS011;11041;50.854;20.580;2023-09-08T02:56:28;14.68;;;12.90;;
21758;SDS011;11041;50.854;20.580;2023-09-08T02:58:58;14.52;;;11.93;;
21758;SDS011;11041;50.854;20.580;2023-09-08T03:01:25;13.15;;;11.60;;
21758;SDS011;11041;50.854;20.580;2023-09-08T03:03:51;13.05;;;11.73;;
21758;SDS011;11041;50.854;20.580;2023-09-08T03:06:18;13.55;;;11.35;;
21758;SDS011;11041;50.854;20.580;2023-09-08T03:08:46;15.63;;;13.82;;
21758;SDS011;11041;50.854;20.580;2023-09-08T03:11:13;14.73;;;12.90;;
21758;SDS011;11041;50.854;20.580;2023-09-08T03:13:40;15.63;;;12.90;;
21758;SDS011;11041;50.854;20.580;2023-09-08T03:16:08;17.55;;;12.45;;
21758;SDS011;11041;50.854;20.580;2023-09-08T03:18:36;15.20;;;11.48;;
21758;SDS011;11041;50.854;20.580;2023-09-08T03:21:06;14.05;;;11.93;;
21758;SDS011;11041;50.854;20.580;2023-09-08T03:23:39;17.40;;;12.50;;
21758;SDS011;11041;50.854;20.580;2023-09-08T03:26:08;14.05;;;11.88;;
21758;SDS011;11041;50.854;20.580;2023-09-08T03:28:37;14.95;;;12.10;;
21758;SDS011;11041;50.854;20.580;2023-09-08T03:31:08;16.17;;;12.55;;
21758;SDS011;11041;50.854;20.580;2023-09-08T03:33:37;14.13;;;12.50;;
21758;SDS011;11041;50.854;20.580;2023-09-08T03:36:04;13.43;;;11.73;;
21758;SDS011;11041;50.854;20.580;2023-09-08T03:38:31;17.13;;;12.35;;
21758;SDS011;11041;50.854;20.580;2023-09-08T03:40:58;15.00;;;11.30;;
21758;SDS011;11041;50.854;20.580;2023-09-08T03:43:25;12.68;;;11.30;;
21758;SDS011;11041;50.854;20.580;2023-09-08T03:45:51;13.32;;;10.93;;
21758;SDS011;11041;50.854;20.580;2023-09-08T03:48:22;15.18;;;12.55;;
21758;SDS011;11041;50.854;20.580;2023-09-08T03:50:52;16.52;;;12.38;;
21758;SDS011;11041;50.854;20.580;2023-09-08T03:53:19;15.35;;;11.75;;
21758;SDS011;11041;50.854;20.580;2023-09-08T03:55:45;14.35;;;11.50;;
21758;SDS011;11041;50.854;20.580;2023-09-08T03:58:12;16.92;;;12.45;;
21758;SDS011;11041;50.854;20.580;2023-09-08T04:00:39;13.50;;;12.05;;
21758;SDS011;11041;50.854;20.580;2023-09-08T04:03:13;16.27;;;12.50;;
21758;SDS011;11041;50.854;20.580;2023-09-08T04:05:42;12.80;;;11.40;;
21758;SDS011;11041;50.854;20.580;2023-09-08T04:08:08;15.02;;;12.30;;
21758;SDS011;11041;50.854;20.580;2023-09-08T04:10:42;14.90;;;11.70;;
21758;SDS011;11041;50.854;20.580;2023-09-08T04:13:09;14.43;;;12.23;;
21758;SDS011;11041;50.854;20.580;2023-09-08T04:15:37;13.23;;;11.00;;
21758;SDS011;11041;50.854;20.580;2023-09-08T04:18:04;13.88;;;12.38;;
21758;SDS011;11041;50.854;20.580;2023-09-08T04:20:34;16.90;;;12.02;;
21758;SDS011;11041;50.854;20.580;2023-09-08T04:23:10;14.20;;;11.43;;
21758;SDS011;11041;50.854;20.580;2023-09-08T04:25:38;12.68;;;11.25;;
21758;SDS011;11041;50.854;20.580;2023-09-08T04:28:08;15.50;;;12.25;;
21758;SDS011;11041;50.854;20.580;2023-09-08T04:30:36;14.85;;;12.23;;
21758;SDS011;11041;50.854;20.580;2023-09-08T04:33:08;15.50;;;12.75;;
21758;SDS011;11041;50.854;20.580;2023-09-08T04:35:39;13.93;;;12.02;;
21758;SDS011;11041;50.854;20.580;2023-09-08T04:38:17;15.90;;;12.25;;
21758;SDS011;11041;50.854;20.580;2023-09-08T04:40:48;15.80;;;12.07;;
21758;SDS011;11041;50.854;20.580;2023-09-08T04:43:30;13.88;;;12.38;;
21758;SDS011;11041;50.854;20.580;2023-09-08T04:45:56;13.18;;;11.75;;
21758;SDS011;11041;50.854;20.580;2023-09-08T04:48:23;13.80;;;11.25;;
21758;SDS011;11041;50.854;20.580;2023-09-08T04:50:52;19.33;;;12.48;;
21758;SDS011;11041;50.854;20.580;2023-09-08T04:53:19;25.60;;;12.65;;
21758;SDS011;11041;50.854;20.580;2023-09-08T04:55:47;19.33;;;13.50;;
21758;SDS011;11041;50.854;20.580;2023-09-08T04:58:13;26.00;;;14.82;;
21758;SDS011;11041;50.854;20.580;2023-09-08T05:00:42;20.63;;;14.30;;
21758;SDS011;11041;50.854;20.580;2023-09-08T05:03:09;24.65;;;13.98;;
21758;SDS011;11041;50.854;20.580;2023-09-08T05:05:37;20.40;;;13.63;;
21758;SDS011;11041;50.854;20.580;2023-09-08T05:08:06;14.82;;;12.52;;
21758;SDS011;11041;50.854;20.580;2023-09-08T05:10:33;18.58;;;12.57;;
21758;SDS011;11041;50.854;20.580;2023-09-08T05:13:00;20.33;;;13.43;;
21758;SDS011;11041;50.854;20.580;2023-09-08T05:15:26;17.88;;;14.25;;
21758;SDS011;11041;50.854;20.580;2023-09-08T05:17:53;18.45;;;14.15;;
21758;SDS011;11041;50.854;20.580;2023-09-08T05:20:20;19.50;;;14.27;;
21758;SDS011;11041;50.854;20.580;2023-09-08T05:22:49;19.88;;;14.10;;
21758;SDS011;11041;50.854;20.580;2023-09-08T05:25:17;22.52;;;15.32;;
21758;SDS011;11041;50.854;20.580;2023-09-08T05:27:44;19.70;;;15.95;;
21758;SDS011;11041;50.854;20.580;2023-09-08T05:30:15;17.42;;;14.55;;
21758;SDS011;11041;50.854;20.580;2023-09-08T05:32:45;25.95;;;14.80;;
21758;SDS011;11041;50.854;20.580;2023-09-08T05:35:15;23.00;;;15.20;;
21758;SDS011;11041;50.854;20.580;2023-09-08T05:37:44;19.63;;;13.73;;
21758;SDS011;11041;50.854;20.580;2023-09-08T05:40:11;16.70;;;13.52;;
21758;SDS011;11041;50.854;20.580;2023-09-08T05:42:38;21.05;;;14.80;;
21758;SDS011;11041;50.854;20.580;2023-09-08T05:45:04;23.40;;;13.60;;
21758;SDS011;11041;50.854;20.580;2023-09-08T05:47:32;18.38;;;14.07;;
21758;SDS011;11041;50.854;20.580;2023-09-08T05:50:00;19.08;;;12.98;;
21758;SDS011;11041;50.854;20.580;2023-09-08T05:52:28;16.63;;;13.73;;
21758;SDS011;11041;50.854;20.580;2023-09-08T05:54:55;14.50;;;12.38;;
21758;SDS011;11041;50.854;20.580;2023-09-08T05:57:23;16.80;;;13.15;;
21758;SDS011;11041;50.854;20.580;2023-09-08T05:59:50;17.58;;;12.40;;
21758;SDS011;11041;50.854;20.580;2023-09-08T06:02:16;16.80;;;13.70;;
21758;SDS011;11041;50.854;20.580;2023-09-08T06:04:50;14.90;;;12.65;;
21758;SDS011;11041;50.854;20.580;2023-09-08T06:07:21;20.90;;;13.07;;
21758;SDS011;11041;50.854;20.580;2023-09-08T06:09:50;15.82;;;13.07;;
21758;SDS011;11041;50.854;20.580;2023-09-08T06:12:19;18.27;;;12.55;;
21758;SDS011;11041;50.854;20.580;2023-09-08T06:14:46;15.38;;;13.15;;
21758;SDS011;11041;50.854;20.580;2023-09-08T06:17:15;18.75;;;13.30;;
21758;SDS011;11041;50.854;20.580;2023-09-08T06:19:44;14.88;;;12.90;;
21758;SDS011;11041;50.854;20.580;2023-09-08T06:22:11;17.20;;;13.98;;
21758;SDS011;11041;50.854;20.580;2023-09-08T06:24:37;17.80;;;13.10;;
21758;SDS011;11041;50.854;20.580;2023-09-08T06:27:05;18.40;;;13.02;;
21758;SDS011;11041;50.854;20.580;2023-09-08T06:29:39;22.15;;;16.98;;
21758;SDS011;11041;50.854;20.580;2023-09-08T06:32:09;23.00;;;15.15;;
21758;SDS011;11041;50.854;20.580;2023-09-08T06:34:37;19.42;;;14.30;;
21758;SDS011;11041;50.854;20.580;2023-09-08T06:37:10;17.52;;;13.60;;
21758;SDS011;11041;50.854;20.580;2023-09-08T06:39:39;15.95;;;13.13;;
21758;SDS011;11041;50.854;20.580;2023-09-08T06:42:08;17.27;;;13.10;;
21758;SDS011;11041;50.854;20.580;2023-09-08T06:44:35;21.95;;;13.55;;
21758;SDS011;11041;50.854;20.580;2023-09-08T06:47:02;19.38;;;11.93;;
21758;SDS011;11041;50.854;20.580;2023-09-08T06:49:35;16.88;;;13.25;;
21758;SDS011;11041;50.854;20.580;2023-09-08T06:52:02;16.60;;;12.38;;
21758;SDS011;11041;50.854;20.580;2023-09-08T06:54:32;15.35;;;10.85;;
21758;SDS011;11041;50.854;20.580;2023-09-08T06:57:01;15.10;;;11.68;;
21758;SDS011;11041;50.854;20.580;2023-09-08T06:59:30;15.75;;;10.63;;
21758;SDS011;11041;50.854;20.580;2023-09-08T07:02:00;14.30;;;10.75;;
21758;SDS011;11041;50.854;20.580;2023-09-08T07:04:32;15.25;;;9.93;;
21758;SDS011;11041;50.854;20.580;2023-09-08T07:07:02;15.80;;;10.23;;
21758;SDS011;11041;50.854;20.580;2023-09-08T07:09:35;14.10;;;10.00;;
21758;SDS011;11041;50.854;20.580;2023-09-08T07:12:04;17.45;;;10.38;;
21758;SDS011;11041;50.854;20.580;2023-09-08T07:14:31;15.27;;;9.77;;
21758;SDS011;11041;50.854;20.580;2023-09-08T07:16:58;14.65;;;9.95;;
21758;SDS011;11041;50.854;20.580;2023-09-08T07:19:25;12.00;;;9.48;;
21758;SDS011;11041;50.854;20.580;2023-09-08T07:21:53;13.27;;;10.38;;
21758;SDS011;11041;50.854;20.580;2023-09-08T07:24:19;12.27;;;9.30;;
21758;SDS011;11041;50.854;20.580;2023-09-08T07:26:49;14.65;;;9.13;;
21758;SDS011;11041;50.854;20.580;2023-09-08T07:29:17;16.25;;;9.43;;
21758;SDS011;11041;50.854;20.580;2023-09-08T07:31:43;11.80;;;9.38;;
21758;SDS011;11041;50.854;20.580;2023-09-08T07:34:10;16.98;;;9.77;;
21758;SDS011;11041;50.854;20.580;2023-09-08T07:36:38;13.35;;;9.13;;
21758;SDS011;11041;50.854;20.580;2023-09-08T07:39:04;13.25;;;9.18;;
21758;SDS011;11041;50.854;20.580;2023-09-08T07:41:32;12.52;;;9.10;;
21758;SDS011;11041;50.854;20.580;2023-09-08T07:43:59;12.63;;;7.93;;
21758;SDS011;11041;50.854;20.580;2023-09-08T07:46:27;12.68;;;8.07;;
21758;SDS011;11041;50.854;20.580;2023-09-08T07:48:55;10.27;;;7.72;;
21758;SDS011;11041;50.854;20.580;2023-09-08T07:51:24;7.32;;;6.60;;
21758;SDS011;11041;50.854;20.580;2023-09-08T07:53:54;16.80;;;7.60;;
21758;SDS011;11041;50.854;20.580;2023-09-08T07:56:21;13.00;;;7.18;;
21758;SDS011;11041;50.854;20.580;2023-09-08T07:58:50;8.50;;;6.53;;
21758;SDS011;11041;50.854;20.580;2023-09-08T08:01:18;10.25;;;6.78;;
21758;SDS011;11041;50.854;20.580;2023-09-08T08:03:44;7.07;;;6.07;;
21758;SDS011;11041;50.854;20.580;2023-09-08T08:06:11;9.10;;;6.93;;
21758;SDS011;11041;50.854;20.580;2023-09-08T08:08:38;8.63;;;6.57;;
21758;SDS011;11041;50.854;20.580;2023-09-08T08:11:13;12.07;;;6.75;;
21758;SDS011;11041;50.854;20.580;2023-09-08T08:13:43;10.57;;;6.50;;
21758;SDS011;11041;50.854;20.580;2023-09-08T08:16:11;8.60;;;6.43;;
21758;SDS011;11041;50.854;20.580;2023-09-08T08:18:38;9.20;;;6.38;;
21758;SDS011;11041;50.854;20.580;2023-09-08T08:21:05;9.02;;;5.68;;
21758;SDS011;11041;50.854;20.580;2023-09-08T08:23:33;8.55;;;6.38;;
21758;SDS011;11041;50.854;20.580;2023-09-08T08:26:03;7.20;;;6.25;;
21758;SDS011;11041;50.854;20.580;2023-09-08T08:28:32;10.15;;;6.18;;
21758;SDS011;11041;50.854;20.580;2023-09-08T08:31:00;7.68;;;5.95;;
21758;SDS011;11041;50.854;20.580;2023-09-08T08:33:29;10.73;;;5.95;;
21758;SDS011;11041;50.854;20.580;2023-09-08T08:35:56;11.52;;;5.97;;
21758;SDS011;11041;50.854;20.580;2023-09-08T08:38:25;6.95;;;5.68;;
21758;SDS011;11041;50.854;20.580;2023-09-08T08:40:52;10.35;;;5.82;;
21758;SDS011;11041;50.854;20.580;2023-09-08T08:43:19;7.72;;;6.00;;
21758;SDS011;11041;50.854;20.580;2023-09-08T08:45:48;6.13;;;5.55;;
21758;SDS011;11041;50.854;20.580;2023-09-08T08:48:18;6.68;;;6.00;;
21758;SDS011;11041;50.854;20.580;2023-09-08T08:50:50;8.70;;;5.53;;
21758;SDS011;11041;50.854;20.580;2023-09-08T08:53:20;6.88;;;6.18;;
21758;SDS011;11041;50.854;20.580;2023-09-08T08:55:49;7.80;;;5.80;;
21758;SDS011;11041;50.854;20.580;2023-09-08T08:58:21;7.03;;;5.80;;
21758;SDS011;11041;50.854;20.580;2023-09-08T09:00:53;7.78;;;6.28;;
21758;SDS011;11041;50.854;20.580;2023-09-08T09:03:23;7.47;;;5.90;;
21758;SDS011;11041;50.854;20.580;2023-09-08T09:05:54;9.38;;;5.55;;
21758;SDS011;11041;50.854;20.580;2023-09-08T09:08:21;8.32;;;5.43;;
21758;SDS011;11041;50.854;20.580;2023-09-08T09:10:51;8.23;;;5.57;;
21758;SDS011;11041;50.854;20.580;2023-09-08T09:13:18;7.55;;;5.20;;
21758;SDS011;11041;50.854;20.580;2023-09-08T09:15:45;9.93;;;5.50;;
21758;SDS011;11041;50.854;20.580;2023-09-08T09:18:14;7.35;;;5.43;;
21758;SDS011;11041;50.854;20.580;2023-09-08T09:20:41;10.50;;;5.15;;
21758;SDS011;11041;50.854;20.580;2023-09-08T09:23:27;8.00;;;5.00;;
21758;SDS011;11041;50.854;20.580;2023-09-08T09:26:02;5.20;;;4.68;;
21758;SDS011;11041;50.854;20.580;2023-09-08T09:28:33;8.32;;;4.60;;
21758;SDS011;11041;50.854;20.580;2023-09-08T09:31:13;6.65;;;5.20;;
21758;SDS011;11041;50.854;20.580;2023-09-08T09:33:40;8.55;;;4.68;;
21758;SDS011;11041;50.854;20.580;2023-09-08T09:36:09;6.75;;;4.50;;
21758;SDS011;11041;50.854;20.580;2023-09-08T09:38:45;5.85;;;4.50;;
21758;SDS011;11041;50.854;20.580;2023-09-08T09:41:13;7.32;;;4.45;;
21758;SDS011;11041;50.854;20.580;2023-09-08T09:43:41;6.45;;;4.30;;
21758;SDS011;11041;50.854;20.580;2023-09-08T09:46:10;7.32;;;5.05;;
21758;SDS011;11041;50.854;20.580;2023-09-08T09:48:36;6.88;;;5.10;;
21758;SDS011;11041;50.854;20.580;2023-09-08T09:51:15;10.25;;;5.45;;
21758;SDS011;11041;50.854;20.580;2023-09-08T09:53:45;9.98;;;5.88;;
21758;SDS011;11041;50.854;20.580;2023-09-08T09:56:14;6.90;;;5.60;;
21758;SDS011;11041;50.854;20.580;2023-09-08T09:58:43;5.50;;;4.70;;
21758;SDS011;11041;50.854;20.580;2023-09-08T10:01:14;6.70;;;5.15;;
21758;SDS011;11041;50.854;20.580;2023-09-08T10:03:43;6.97;;;4.97;;
21758;SDS011;11041;50.854;20.580;2023-09-08T10:06:14;5.97;;;4.70;;
21758;SDS011;11041;50.854;20.580;2023-09-08T10:08:42;6.07;;;4.95;;
21758;SDS011;11041;50.854;20.580;2023-09-08T10:11:11;7.35;;;5.20;;
21758;SDS011;11041;50.854;20.580;2023-09-08T10:13:46;8.48;;;5.63;;
21758;SDS011;11041;50.854;20.580;2023-09-08T10:16:20;8.15;;;5.38;;
21758;SDS011;11041;50.854;20.580;2023-09-08T10:18:48;7.15;;;4.75;;
21758;SDS011;11041;50.854;20.580;2023-09-08T10:21:18;4.78;;;4.38;;
21758;SDS011;11041;50.854;20.580;2023-09-08T10:27:05;5.88;;;4.75;;
21758;SDS011;11041;50.854;20.580;2023-09-08T10:29:37;9.30;;;5.05;;
21758;SDS011;11041;50.854;20.580;2023-09-08T10:32:06;5.80;;;5.00;;
21758;SDS011;11041;50.854;20.580;2023-09-08T10:34:37;7.18;;;5.30;;
21758;SDS011;11041;50.854;20.580;2023-09-08T10:37:19;6.65;;;5.18;;
21758;SDS011;11041;50.854;20.580;2023-09-08T10:39:55;6.97;;;5.13;;
21758;SDS011;11041;50.854;20.580;2023-09-08T10:43:01;6.25;;;4.50;;
21758;SDS011;11041;50.854;20.580;2023-09-08T10:45:39;5.75;;;4.40;;
21758;SDS011;11041;50.854;20.580;2023-09-08T10:48:07;7.35;;;4.93;;
21758;SDS011;11041;50.854;20.580;2023-09-08T10:50:41;4.65;;;4.25;;
21758;SDS011;11041;50.854;20.580;2023-09-08T10:53:12;5.22;;;4.72;;
21758;SDS011;11041;50.854;20.580;2023-09-08T10:55:45;8.43;;;4.32;;
21758;SDS011;11041;50.854;20.580;2023-09-08T10:58:33;5.05;;;4.45;;
21758;SDS011;11041;50.854;20.580;2023-09-08T11:01:06;6.65;;;4.68;;
21758;SDS011;11041;50.854;20.580;2023-09-08T11:06:08;5.60;;;4.32;;
21758;SDS011;11041;50.854;20.580;2023-09-08T11:08:43;4.88;;;4.00;;
21758;SDS011;11041;50.854;20.580;2023-09-08T11:11:14;3.95;;;3.55;;
21758;SDS011;11041;50.854;20.580;2023-09-08T11:13:43;5.70;;;4.10;;
21758;SDS011;11041;50.854;20.580;2023-09-08T11:16:13;3.80;;;3.50;;
21758;SDS011;11041;50.854;20.580;2023-09-08T11:18:47;5.15;;;3.97;;
21758;SDS011;11041;50.854;20.580;2023-09-08T11:21:18;4.80;;;3.75;;
21758;SDS011;11041;50.854;20.580;2023-09-08T11:23:47;3.92;;;3.60;;
21758;SDS011;11041;50.854;20.580;2023-09-08T11:26:16;7.05;;;4.60;;
21758;SDS011;11041;50.854;20.580;2023-09-08T11:28:44;5.72;;;4.00;;
21758;SDS011;11041;50.854;20.580;2023-09-08T11:31:15;5.22;;;4.07;;
21758;SDS011;11041;50.854;20.580;2023-09-08T11:33:45;4.40;;;3.78;;
21758;SDS011;11041;50.854;20.580;2023-09-08T11:36:17;5.93;;;4.32;;
21758;SDS011;11041;50.854;20.580;2023-09-08T11:38:45;4.60;;;3.83;;
21758;SDS011;11041;50.854;20.580;2023-09-08T11:41:12;5.95;;;3.92;;
21758;SDS011;11041;50.854;20.580;2023-09-08T11:43:40;7.13;;;3.90;;
21758;SDS011;11041;50.854;20.580;2023-09-08T11:46:11;6.32;;;3.90;;
21758;SDS011;11041;50.854;20.580;2023-09-08T11:48:41;3.92;;;3.58;;
21758;SDS011;11041;50.854;20.580;2023-09-08T11:51:08;4.97;;;4.03;;
21758;SDS011;11041;50.854;20.580;2023-09-08T11:53:37;5.18;;;3.85;;
21758;SDS011;11041;50.854;20.580;2023-09-08T11:56:07;6.10;;;4.05;;
21758;SDS011;11041;50.854;20.580;2023-09-08T11:58:39;6.68;;;3.67;;
21758;SDS011;11041;50.854;20.580;2023-09-08T12:01:08;4.40;;;4.00;;
21758;SDS011;11041;50.854;20.580;2023-09-08T12:03:59;4.13;;;3.72;;
21758;SDS011;11041;50.854;20.580;2023-09-08T12:06:28;7.32;;;4.05;;
21758;SDS011;11041;50.854;20.580;2023-09-08T12:08:56;4.45;;;3.95;;
21758;SDS011;11041;50.854;20.580;2023-09-08T12:11:33;4.93;;;3.60;;
21758;SDS011;11041;50.854;20.580;2023-09-08T12:14:06;4.70;;;4.30;;
21758;SDS011;11041;50.854;20.580;2023-09-08T12:16:37;4.80;;;4.05;;
21758;SDS011;11041;50.854;20.580;2023-09-08T12:19:06;5.07;;;3.92;;
21758;SDS011;11041;50.854;20.580;2023-09-08T12:21:35;7.68;;;4.70;;
21758;SDS011;11041;50.854;20.580;2023-09-08T12:32:31;5.57;;;3.78;;
21758;SDS011;11041;50.854;20.580;2023-09-08T12:35:03;5.65;;;4.13;;
21758;SDS011;11041;50.854;20.580;2023-09-08T12:37:36;5.15;;;4.07;;
21758;SDS011;11041;50.854;20.580;2023-09-08T12:40:07;5.07;;;3.72;;
21758;SDS011;11041;50.854;20.580;2023-09-08T12:42:36;6.65;;;3.85;;
21758;SDS011;11041;50.854;20.580;2023-09-08T12:45:06;4.88;;;4.35;;
21758;SDS011;11041;50.854;20.580;2023-09-08T12:47:33;7.05;;;4.13;;
21758;SDS011;11041;50.854;20.580;2023-09-08T12:50:02;4.85;;;4.00;;
21758;SDS011;11041;50.854;20.580;2023-09-08T12:52:34;8.55;;;3.85;;
21758;SDS011;11041;50.854;20.580;2023-09-08T12:55:03;5.20;;;3.85;;
21758;SDS011;11041;50.854;20.580;2023-09-08T12:57:34;4.50;;;3.75;;
21758;SDS011;11041;50.854;20.580;2023-09-08T13:00:05;7.47;;;3.67;;
21758;SDS011;11041;50.854;20.580;2023-09-08T13:02:34;5.13;;;3.95;;
21758;SDS011;11041;50.854;20.580;2023-09-08T13:05:01;5.60;;;3.80;;
21758;SDS011;11041;50.854;20.580;2023-09-08T13:07:34;5.95;;;3.92;;
21758;SDS011;11041;50.854;20.580;2023-09-08T13:10:04;3.92;;;3.60;;
21758;SDS011;11041;50.854;20.580;2023-09-08T13:12:35;5.53;;;4.13;;
21758;SDS011;11041;50.854;20.580;2023-09-08T13:15:02;4.07;;;3.67;;
21758;SDS011;11041;50.854;20.580;2023-09-08T13:17:30;5.60;;;3.40;;
21758;SDS011;11041;50.854;20.580;2023-09-08T13:19:59;6.70;;;3.78;;
21758;SDS011;11041;50.854;20.580;2023-09-08T13:22:39;5.00;;;3.92;;
21758;SDS011;11041;50.854;20.580;2023-09-08T13:25:11;7.28;;;3.92;;
21758;SDS011;11041;50.854;20.580;2023-09-08T13:27:43;5.65;;;3.78;;
21758;SDS011;11041;50.854;20.580;2023-09-08T13:30:17;9.38;;;4.55;;
21758;SDS011;11041;50.854;20.580;2023-09-08T13:32:48;4.72;;;4.22;;
21758;SDS011;11041;50.854;20.580;2023-09-08T13:35:15;8.43;;;4.63;;
21758;SDS011;11041;50.854;20.580;2023-09-08T13:37:43;7.43;;;3.85;;
21758;SDS011;11041;50.854;20.580;2023-09-08T13:40:10;5.13;;;4.13;;
21758;SDS011;11041;50.854;20.580;2023-09-08T13:42:39;5.28;;;3.88;;
21758;SDS011;11041;50.854;20.580;2023-09-08T13:45:07;7.88;;;4.43;;
21758;SDS011;11041;50.854;20.580;2023-09-08T13:47:34;4.35;;;3.95;;
21758;SDS011;11041;50.854;20.580;2023-09-08T13:50:04;6.20;;;4.70;;
21758;SDS011;11041;50.854;20.580;2023-09-08T13:52:36;5.88;;;4.15;;
21758;SDS011;11041;50.854;20.580;2023-09-08T13:55:05;4.25;;;3.85;;
21758;SDS011;11041;50.854;20.580;2023-09-08T13:57:33;7.45;;;4.22;;
21758;SDS011;11041;50.854;20.580;2023-09-08T14:00:03;7.97;;;4.35;;
21758;SDS011;11041;50.854;20.580;2023-09-08T14:02:34;5.82;;;4.32;;
21758;SDS011;11041;50.854;20.580;2023-09-08T14:05:04;7.68;;;4.35;;
21758;SDS011;11041;50.854;20.580;2023-09-08T14:07:32;6.32;;;4.38;;
21758;SDS011;11041;50.854;20.580;2023-09-08T14:10:00;5.72;;;4.20;;
21758;SDS011;11041;50.854;20.580;2023-09-08T14:12:33;10.02;;;4.63;;
21758;SDS011;11041;50.854;20.580;2023-09-08T14:15:03;7.70;;;4.45;;
21758;SDS011;11041;50.854;20.580;2023-09-08T14:17:31;4.57;;;4.10;;
21758;SDS011;11041;50.854;20.580;2023-09-08T14:19:59;10.38;;;4.43;;
21758;SDS011;11041;50.854;20.580;2023-09-08T14:22:30;6.40;;;4.45;;
21758;SDS011;11041;50.854;20.580;2023-09-08T14:25:00;7.72;;;3.90;;
21758;SDS011;11041;50.854;20.580;2023-09-08T14:27:32;7.40;;;4.43;;
21758;SDS011;11041;50.854;20.580;2023-09-08T14:30:01;8.50;;;4.70;;
21758;SDS011;11041;50.854;20.580;2023-09-08T14:32:31;11.07;;;4.00;;
21758;SDS011;11041;50.854;20.580;2023-09-08T14:34:59;10.70;;;4.40;;
21758;SDS011;11041;50.854;20.580;2023-09-08T14:37:30;9.82;;;4.57;;
21758;SDS011;11041;50.854;20.580;2023-09-08T14:39:58;5.63;;;4.30;;
21758;SDS011;11041;50.854;20.580;2023-09-08T14:42:25;4.90;;;4.40;;
21758;SDS011;11041;50.854;20.580;2023-09-08T14:44:56;5.07;;;3.90;;
21758;SDS011;11041;50.854;20.580;2023-09-08T14:47:28;5.57;;;4.70;;
21758;SDS011;11041;50.854;20.580;2023-09-08T14:49:58;9.80;;;4.72;;